| time (UTC) | temp C | wind direction | speed KPH | gust KPH | rain 1hr cm | rain 24hr cm | rain mn cm | humidity % | barometer mb |
| 20260507063722 | 13 | 18 | 1.6 | 1.6 | 0.00 | 0.00 | 0.00 | 92 | 1018.0 |
| 20260507062721 | 14 | 194 | 1.6 | 3.2 | 0.00 | 0.00 | 0.00 | 92 | 1018.0 |
| 20260507061720 | 14 | 194 | 1.6 | 3.2 | 0.00 | 0.00 | 0.00 | 92 | 1018.0 |
| 20260507060720 | 14 | 18 | 1.6 | 1.6 | 0.00 | 0.00 | 0.00 | 91 | 1018.0 |
| 20260507055719 | 14 | 18 | 1.6 | 1.6 | 0.00 | 0.00 | 0.00 | 90 | 1018.0 |
| 20260507054718 | 14 | 18 | 1.6 | 1.6 | 0.00 | 0.00 | 0.00 | 88 | 1019.0 |
| 20260507053718 | 14 | 18 | 1.6 | 1.6 | 0.00 | 0.00 | 0.00 | 89 | 1019.0 |
| 20260507052717 | 14 | 135 | 1.6 | 3.2 | 0.00 | 0.00 | 0.00 | 93 | 1019.0 |
| 20260507051716 | 14 | 135 | 1.6 | 3.2 | 0.00 | 0.00 | 0.00 | 93 | 1019.0 |
| 20260507050715 | 14 | 135 | 1.6 | 3.2 | 0.00 | 0.00 | 0.00 | 94 | 1019.0 |
| 20260507045715 | 14 | 135 | 1.6 | 3.2 | 0.00 | 0.00 | 0.00 | 94 | 1019.0 |
| 20260507044714 | 15 | 135 | 1.6 | 3.2 | 0.00 | 0.00 | 0.00 | 93 | 1019.0 |
| 20260507043713 | 15 | 135 | 1.6 | 3.2 | 0.00 | 0.00 | 0.00 | 93 | 1019.0 |
| 20260507042712 | 15 | 107 | 1.6 | 3.2 | 0.00 | 0.00 | 0.00 | 93 | 1018.0 |
| 20260507041712 | 15 | 107 | 1.6 | 3.2 | 0.00 | 0.00 | 0.00 | 93 | 1018.0 |
| 20260507040711 | 15 | 107 | 1.6 | 3.2 | 0.00 | 0.00 | 0.00 | 92 | 1018.0 |
| 20260507035711 | 15 | 107 | 1.6 | 3.2 | 0.00 | 0.00 | 0.00 | 92 | 1018.0 |
| 20260507034710 | 15 | 107 | 1.6 | 3.2 | 0.00 | 0.00 | 0.00 | 93 | 1018.0 |
| 20260507033709 | 15 | 107 | 1.6 | 3.2 | 0.00 | 0.00 | 0.00 | 93 | 1018.0 |
| 20260507032708 | 15 | 157 | 1.6 | 3.2 | 0.00 | 0.00 | 0.00 | 92 | 1018.0 |
| 20260507031707 | 15 | 157 | 1.6 | 3.2 | 0.00 | 0.00 | 0.00 | 92 | 1018.0 |
| 20260507030707 | 16 | 18 | 1.6 | 1.6 | 0.00 | 0.00 | 0.00 | 92 | 1018.0 |
| 20260507025706 | 16 | 18 | 1.6 | 1.6 | 0.00 | 0.00 | 0.00 | 92 | 1018.0 |
| 20260507024705 | 16 | 18 | 1.6 | 1.6 | 0.00 | 0.00 | 0.00 | 92 | 1018.0 |
| 20260507023705 | 16 | 18 | 1.6 | 1.6 | 0.00 | 0.00 | 0.00 | 92 | 1018.0 |
| 20260507022704 | 16 | 177 | 4.8 | 3.2 | 0.00 | 0.00 | 0.00 | 91 | 1017.0 |
| 20260507021703 | 16 | 177 | 4.8 | 3.2 | 0.00 | 0.00 | 0.00 | 91 | 1017.0 |
| 20260507020703 | 16 | 177 | 4.8 | 3.2 | 0.00 | 0.00 | 0.00 | 92 | 1017.0 |
| 20260507015702 | 16 | 177 | 4.8 | 3.2 | 0.00 | 0.00 | 0.00 | 92 | 1017.0 |
| 20260507014702 | 16 | 18 | 1.6 | 1.6 | 0.00 | 0.00 | 0.00 | 91 | 1017.0 |
| 20260507013701 | 16 | 18 | 1.6 | 1.6 | 0.00 | 0.00 | 0.00 | 91 | 1017.0 |
| 20260507012700 | 16 | 336 | 8.0 | 8.0 | 0.00 | 0.00 | 0.00 | 90 | 1016.0 |
| 20260507011659 | 16 | 336 | 8.0 | 8.0 | 0.00 | 0.00 | 0.00 | 90 | 1016.0 |
| 20260507010658 | 17 | 173 | 6.4 | 4.8 | 0.00 | 0.00 | 0.00 | 88 | 1016.0 |
| 20260507005658 | 17 | 0 | 0.0 | 0.0 | 0.00 | 0.00 | 0.00 | 86 | 1016.0 |
| 20260507004657 | 17 | 0 | 0.0 | 0.0 | 0.00 | 0.00 | 0.00 | 86 | 1016.0 |
| 20260507003657 | 17 | 324 | 8.0 | 8.0 | 0.00 | 0.00 | 0.00 | 82 | 1016.0 |
| 20260507002656 | 17 | 324 | 8.0 | 8.0 | 0.00 | 0.00 | 0.00 | 82 | 1014.0 |
| 20260507001655 | 17 | 324 | 8.0 | 8.0 | 0.00 | 0.00 | 0.00 | 82 | 1014.0 |
| 20260507000655 | 18 | 270 | 4.8 | 4.8 | 0.00 | 0.00 | 0.00 | 79 | 1014.0 |
| 20260506235654 | 19 | 126 | 1.6 | 1.6 | 0.00 | 0.00 | 0.00 | 75 | 1014.0 |
| 20260506234653 | 19 | 126 | 1.6 | 1.6 | 0.00 | 0.00 | 0.00 | 75 | 1014.0 |
| 20260506233653 | 19 | 126 | 1.6 | 1.6 | 0.00 | 0.00 | 0.00 | 75 | 1014.0 |
| 20260506232652 | 19 | 138 | 8.0 | 8.0 | 0.00 | 0.00 | 0.00 | 75 | 1013.0 |
| 20260506231651 | 20 | 138 | 8.0 | 11.3 | 0.00 | 0.00 | 0.00 | 73 | 1013.0 |
| 20260506230650 | 20 | 138 | 8.0 | 11.3 | 0.00 | 0.00 | 0.00 | 73 | 1013.0 |
| 20260506225650 | 20 | 180 | 9.7 | 0.0 | 0.00 | 0.00 | 0.00 | 72 | 1013.0 |
| 20260506224649 | 22 | 180 | 9.7 | 0.0 | 0.00 | 0.00 | 0.00 | 60 | 1013.0 |
| 20260506223648 | 22 | 180 | 9.7 | 0.0 | 0.00 | 0.00 | 0.00 | 60 | 1013.0 |
| 20260506222648 | 22 | 180 | 9.7 | 0.0 | 0.00 | 0.00 | 0.00 | 63 | 1013.0 |
| 20260506221647 | 21 | 180 | 9.7 | 0.0 | 0.00 | 0.00 | 0.00 | 63 | 1013.0 |
| 20260506220646 | 21 | 180 | 9.7 | 0.0 | 0.00 | 0.00 | 0.00 | 63 | 1013.0 |
| 20260506215646 | 21 | 140 | 9.7 | 0.0 | 0.00 | 0.00 | 0.00 | 63 | 1013.0 |
| 20260506214645 | 20 | 144 | 6.4 | 8.0 | 0.00 | 0.00 | 0.00 | 68 | 1013.0 |
| 20260506213644 | 20 | 140 | 9.7 | 0.0 | 0.00 | 0.00 | 0.00 | 68 | 1013.0 |
| 20260506212644 | 21 | 138 | 11.3 | 11.3 | 0.00 | 0.00 | 0.00 | 68 | 1013.0 |
| 20260506211643 | 21 | 138 | 11.3 | 11.3 | 0.00 | 0.00 | 0.00 | 68 | 1013.0 |
| 20260506210032 | 22 | 165 | 17.7 | 17.7 | 0.00 | 0.00 | 0.00 | 62 | 1013.0 |
| 20260506205031 | 22 | 140 | 14.5 | 0.0 | 0.00 | 0.00 | 0.00 | 61 | 1013.0 |
| 20260506204030 | 22 | 140 | 14.5 | 0.0 | 0.00 | 0.00 | 0.00 | 61 | 1013.0 |
| 20260506203030 | 23 | 140 | 14.5 | 0.0 | 0.00 | 0.00 | 0.00 | 56 | 1013.0 |
| 20260506202020 | 23 | 140 | 14.5 | 0.0 | 0.00 | 0.00 | 0.00 | 56 | 1013.0 |
| 20260506201019 | 24 | 140 | 9.7 | 0.0 | 0.00 | 0.00 | 0.00 | 49 | 1013.0 |
| 20260506200019 | 24 | 140 | 9.7 | 0.0 | 0.00 | 0.00 | 0.00 | 49 | 1013.0 |
| 20260506195018 | 25 | 140 | 9.7 | 0.0 | 0.00 | 0.00 | 0.00 | 45 | 1013.0 |
| 20260506194018 | 25 | 140 | 9.7 | 0.0 | 0.00 | 0.00 | 0.00 | 45 | 1013.0 |
| 20260506193017 | 25 | 78 | 12.9 | 12.9 | 0.00 | 0.00 | 0.00 | 23 | 1013.0 |
| 20260506192016 | 25 | 78 | 12.9 | 12.9 | 0.00 | 0.00 | 0.00 | 23 | 1014.0 |
| 20260506191016 | 25 | 140 | 9.7 | 0.0 | 0.00 | 0.00 | 0.00 | 25 | 1014.0 |
| 20260506190015 | 25 | 90 | 17.7 | 0.0 | 0.00 | 0.00 | 0.00 | 25 | 1014.0 |
| 20260506185014 | 24 | 90 | 17.7 | 0.0 | 0.00 | 0.00 | 0.00 | 27 | 1014.0 |
| 20260506184014 | 23 | 90 | 17.7 | 0.0 | 0.00 | 0.00 | 0.00 | 28 | 1014.0 |
| 20260506183013 | 23 | 90 | 17.7 | 0.0 | 0.00 | 0.00 | 0.00 | 28 | 1014.0 |
| 20260506182013 | 23 | 90 | 17.7 | 0.0 | 0.00 | 0.00 | 0.00 | 28 | 1015.0 |
| 20260506181012 | 24 | 1 | 8.0 | 8.0 | 0.00 | 0.00 | 0.00 | 28 | 1015.0 |
| 20260506180011 | 24 | 1 | 8.0 | 8.0 | 0.00 | 0.00 | 0.00 | 28 | 1015.0 |
| 20260506175011 | 23 | 343 | 11.3 | 12.9 | 0.00 | 0.00 | 0.00 | 27 | 1015.0 |
| 20260506172924 | 23 | 325 | 11.3 | 11.3 | 0.00 | 0.00 | 0.00 | 24 | 1015.0 |
| 20260506171923 | 23 | 325 | 11.3 | 11.3 | 0.00 | 0.00 | 0.00 | 24 | 1015.0 |
| 20260506170922 | 23 | 120 | 11.3 | 12.9 | 0.00 | 0.00 | 0.00 | 24 | 1015.0 |
| 20260506165921 | 19 | 0 | 0.0 | 0.0 | 0.00 | 0.00 | 0.00 | 68 | 1015.0 |
| 20260506164921 | 19 | 0 | 0.0 | 0.0 | 0.00 | 0.00 | 0.00 | 68 | 1015.0 |
| 20260506163920 | 20 | 0 | 0.0 | 0.0 | 0.00 | 0.00 | 0.00 | 67 | 1015.0 |
| 20260506162919 | 20 | 0 | 0.0 | 0.0 | 0.00 | 0.00 | 0.00 | 67 | 1016.0 |
| 20260506161933 | 20 | 0 | 0.0 | 0.0 | 0.00 | 0.00 | 0.00 | 66 | 1016.0 |
| 20260506160932 | 19 | 223 | 4.8 | 6.4 | 0.00 | 0.00 | 0.00 | 65 | 1016.0 |
| 20260506155932 | 19 | 223 | 4.8 | 6.4 | 0.00 | 0.00 | 0.00 | 65 | 1016.0 |
| 20260506154931 | 18 | 0 | 0.0 | 0.0 | 0.00 | 0.00 | 0.00 | 66 | 1016.0 |
| 20260506153930 | 18 | 80 | 4.8 | 11.3 | 0.00 | 0.00 | 0.00 | 66 | 1016.0 |
| 20260506152930 | 18 | 86 | 1.6 | 4.8 | 0.00 | 0.00 | 0.00 | 66 | 1017.0 |
| 20260506151929 | 18 | 233 | 1.6 | 1.6 | 0.00 | 0.00 | 0.00 | 70 | 1017.0 |
| 20260506150928 | 18 | 233 | 1.6 | 1.6 | 0.00 | 0.00 | 0.00 | 70 | 1017.0 |
| 20260506145928 | 12 | 0 | 0.0 | 0.0 | 0.00 | 0.00 | 0.00 | 94 | 1017.0 |
| 20260506144927 | 12 | 0 | 0.0 | 0.0 | 0.00 | 0.00 | 0.00 | 94 | 1017.0 |
| 20260506143927 | 16 | 78 | 1.6 | 1.6 | 0.00 | 0.00 | 0.00 | 79 | 1017.0 |
| 20260506142926 | 16 | 78 | 1.6 | 1.6 | 0.00 | 0.00 | 0.00 | 79 | 1017.0 |
| 20260506141925 | 15 | 78 | 1.6 | 1.6 | 0.00 | 0.00 | 0.00 | 80 | 1017.0 |
| 20260506140924 | 15 | 78 | 1.6 | 1.6 | 0.00 | 0.00 | 0.00 | 80 | 1017.0 |
| 20260506135924 | 11 | 0 | 0.0 | 0.0 | 0.00 | 0.00 | 0.00 | 94 | 1017.0 |
| 20260506134923 | 11 | 0 | 0.0 | 0.0 | 0.00 | 0.00 | 0.00 | 94 | 1017.0 |
| 20260506133923 | 13 | 0 | 0.0 | 0.0 | 0.00 | 0.00 | 0.00 | 85 | 1017.0 |
| 20260506132922 | 13 | 0 | 0.0 | 0.0 | 0.00 | 0.00 | 0.00 | 85 | 1017.0 |
| 20260506131921 | 13 | 0 | 0.0 | 0.0 | 0.00 | 0.00 | 0.00 | 86 | 1017.0 |
| 20260506130921 | 12 | 0 | 0.0 | 0.0 | 0.00 | 0.00 | 0.00 | 86 | 1017.0 |
| 20260506125920 | 12 | 0 | 0.0 | 0.0 | 0.00 | 0.00 | 0.00 | 86 | 1018.0 |
| 20260506124919 | 12 | 0 | 0.0 | 0.0 | 0.00 | 0.00 | 0.00 | 86 | 1018.0 |
| 20260506123918 | 10 | 0 | 0.0 | 0.0 | 0.00 | 0.00 | 0.00 | 94 | 1018.0 |
| 20260506122918 | 10 | 0 | 0.0 | 0.0 | 0.00 | 0.00 | 0.00 | 94 | 1018.0 |
| 20260506121917 | 10 | 0 | 0.0 | 0.0 | 0.00 | 0.00 | 0.00 | 94 | 1018.0 |
| 20260506120917 | 10 | 0 | 0.0 | 0.0 | 0.00 | 0.00 | 0.00 | 94 | 1018.0 |
| 20260506115916 | 10 | 248 | 3.2 | 4.8 | 0.00 | 0.00 | 0.00 | 94 | 1018.0 |
| 20260506114915 | 10 | 248 | 3.2 | 4.8 | 0.00 | 0.00 | 0.00 | 94 | 1018.0 |
| 20260506113915 | 10 | 248 | 3.2 | 4.8 | 0.00 | 0.00 | 0.00 | 94 | 1018.0 |
| 20260506112914 | 10 | 234 | 1.6 | 4.8 | 0.00 | 0.00 | 0.00 | 94 | 1018.0 |
| 20260506111913 | 10 | 234 | 1.6 | 4.8 | 0.00 | 0.00 | 0.00 | 93 | 1018.0 |
| 20260506110913 | 11 | 78 | 1.6 | 1.6 | 0.00 | 0.00 | 0.00 | 93 | 1018.0 |
| 20260506105912 | 11 | 78 | 1.6 | 1.6 | 0.00 | 0.00 | 0.00 | 93 | 1018.0 |
| 20260506104912 | 11 | 78 | 1.6 | 1.6 | 0.00 | 0.00 | 0.00 | 93 | 1018.0 |
| 20260506103911 | 11 | 234 | 1.6 | 4.8 | 0.00 | 0.00 | 0.00 | 92 | 1018.0 |
| 20260506102910 | 11 | 228 | 1.6 | 4.8 | 0.00 | 0.00 | 0.00 | 92 | 1018.0 |
| 20260506101910 | 11 | 78 | 1.6 | 1.6 | 0.00 | 0.00 | 0.00 | 92 | 1018.0 |
| 20260506100909 | 11 | 228 | 1.6 | 4.8 | 0.00 | 0.00 | 0.00 | 91 | 1018.0 |
| 20260506095908 | 11 | 228 | 1.6 | 4.8 | 0.00 | 0.00 | 0.00 | 91 | 1018.0 |
| 20260506094908 | 11 | 228 | 1.6 | 4.8 | 0.00 | 0.00 | 0.00 | 91 | 1018.0 |
| 20260506093907 | 11 | 78 | 1.6 | 1.6 | 0.00 | 0.00 | 0.00 | 89 | 1018.0 |
| 20260506092906 | 11 | 78 | 1.6 | 1.6 | 0.00 | 0.00 | 0.00 | 89 | 1018.0 |
| 20260506091906 | 11 | 78 | 1.6 | 1.6 | 0.00 | 0.00 | 0.00 | 91 | 1018.0 |
| 20260506090905 | 11 | 78 | 1.6 | 1.6 | 0.00 | 0.00 | 0.00 | 91 | 1018.0 |
| 20260506085904 | 11 | 227 | 1.6 | 4.8 | 0.00 | 0.00 | 0.00 | 91 | 1018.0 |
| 20260506084904 | 11 | 227 | 1.6 | 4.8 | 0.00 | 0.00 | 0.00 | 91 | 1018.0 |
| 20260506083903 | 11 | 78 | 1.6 | 1.6 | 0.00 | 0.00 | 0.00 | 89 | 1018.0 |
| 20260506082902 | 11 | 78 | 1.6 | 1.6 | 0.00 | 0.00 | 0.00 | 89 | 1018.0 |
| 20260506081901 | 12 | 78 | 1.6 | 1.6 | 0.00 | 0.00 | 0.00 | 91 | 1018.0 |
| 20260506080901 | 12 | 78 | 1.6 | 1.6 | 0.00 | 0.00 | 0.00 | 91 | 1018.0 |
| 20260506072856 | 12 | 78 | 1.6 | 1.6 | 0.00 | 0.00 | 0.00 | 90 | 1018.0 |
| 20260506071856 | 12 | 78 | 1.6 | 1.6 | 0.00 | 0.00 | 0.00 | 88 | 1018.0 |
| 20260506070855 | 12 | 78 | 1.6 | 1.6 | 0.00 | 0.00 | 0.00 | 88 | 1018.0 |